createdAt,value
2023-04-21T00:00:56.122Z,7.40
2023-04-21T00:03:28.180Z,7.47
2023-04-21T00:06:01.747Z,7.50
2023-04-21T00:08:28.827Z,7.44
2023-04-21T00:10:55.686Z,7.42
2023-04-21T00:13:23.220Z,7.49
2023-04-21T00:15:51.399Z,7.46
2023-04-21T00:18:18.329Z,7.49
2023-04-21T00:20:45.409Z,7.46
2023-04-21T00:23:12.271Z,7.49
2023-04-21T00:25:39.358Z,7.59
2023-04-21T00:28:06.325Z,7.45
2023-04-21T00:30:33.073Z,7.51
2023-04-21T00:32:59.917Z,7.50
2023-04-21T00:35:26.991Z,7.54
2023-04-21T00:37:53.914Z,7.58
2023-04-21T00:40:20.832Z,7.61
2023-04-21T00:42:47.608Z,7.60
2023-04-21T00:45:15.712Z,7.57
2023-04-21T00:47:43.212Z,7.49
2023-04-21T00:50:13.457Z,7.47
2023-04-21T00:52:42.293Z,7.47
2023-04-21T00:55:09.583Z,7.39
2023-04-21T00:57:38.285Z,7.35
2023-04-21T01:00:06.520Z,7.24
2023-04-21T01:02:36.097Z,7.26
2023-04-21T01:05:07.395Z,7.30
2023-04-21T01:07:34.158Z,7.23
2023-04-21T01:10:01.124Z,7.18
2023-04-21T01:12:27.983Z,7.13
2023-04-21T01:14:54.870Z,7.19
2023-04-21T01:17:21.795Z,7.20
2023-04-21T01:19:50.136Z,7.18
2023-04-21T01:22:17.131Z,7.19
2023-04-21T01:24:48.404Z,7.17
2023-04-21T01:27:20.641Z,7.19
2023-04-21T01:29:51.514Z,7.16
2023-04-21T01:32:21.136Z,7.12
2023-04-21T01:34:48.788Z,7.04
2023-04-21T01:37:20.126Z,7.11
2023-04-21T01:39:52.446Z,7.06
2023-04-21T01:42:20.268Z,7.09
2023-04-21T01:44:47.288Z,7.06
2023-04-21T01:47:14.237Z,7.06
2023-04-21T01:49:40.985Z,7.05
2023-04-21T01:52:08.144Z,7.06
2023-04-21T01:54:35.798Z,7.04
2023-04-21T01:57:03.356Z,7.09
2023-04-21T01:59:30.226Z,7.11
2023-04-21T02:01:57.058Z,7.11
2023-04-21T02:04:23.978Z,7.10
2023-04-21T02:06:50.876Z,7.14
2023-04-21T02:09:18.020Z,7.20
2023-04-21T02:11:45.104Z,7.17
2023-04-21T02:14:11.913Z,7.12
2023-04-21T02:16:38.748Z,7.21
2023-04-21T02:19:06.347Z,7.25
2023-04-21T02:21:33.135Z,7.17
2023-04-21T02:24:00.263Z,7.16
2023-04-21T02:26:27.221Z,7.23
2023-04-21T02:28:53.966Z,7.06
2023-04-21T02:31:20.745Z,7.12
2023-04-21T02:33:47.531Z,7.13
2023-04-21T02:36:14.376Z,7.16
2023-04-21T02:38:41.195Z,7.14
2023-04-21T02:41:08.579Z,7.22
2023-04-21T02:43:35.274Z,7.17
2023-04-21T02:46:08.978Z,7.09
2023-04-21T02:48:37.087Z,7.05
2023-04-21T02:51:04.855Z,7.20
2023-04-21T02:53:31.801Z,7.10
2023-04-21T02:55:58.544Z,7.13
2023-04-21T02:58:25.705Z,7.12
2023-04-21T03:00:52.544Z,7.18
2023-04-21T03:03:19.548Z,7.14
2023-04-21T03:05:46.490Z,7.19
2023-04-21T03:08:13.597Z,7.13
2023-04-21T03:10:40.570Z,7.14
2023-04-21T03:13:07.362Z,7.22
2023-04-21T03:15:34.186Z,7.12
2023-04-21T03:18:01.624Z,7.20
2023-04-21T03:20:28.544Z,7.28
2023-04-21T03:22:55.364Z,7.22
2023-04-21T03:25:22.215Z,7.24
2023-04-21T03:27:49.985Z,7.23
2023-04-21T03:30:16.712Z,7.18
2023-04-21T03:32:43.501Z,7.17
2023-04-21T03:35:10.340Z,7.14
2023-04-21T03:37:37.062Z,7.16
2023-04-21T03:40:06.327Z,7.15
2023-04-21T03:42:33.105Z,7.13
2023-04-21T03:45:07.886Z,7.26
2023-04-21T03:47:35.470Z,7.30
2023-04-21T03:50:06.703Z,7.24
2023-04-21T03:52:33.782Z,7.21
2023-04-21T03:55:01.031Z,7.19
2023-04-21T03:57:27.714Z,7.17
2023-04-21T03:59:54.500Z,7.19
2023-04-21T04:02:21.421Z,7.16
2023-04-21T04:04:48.969Z,7.20
2023-04-21T04:07:17.791Z,7.19
2023-04-21T04:09:44.949Z,7.21
2023-04-21T04:12:11.986Z,7.18
2023-04-21T04:14:39.727Z,7.23
2023-04-21T04:17:06.619Z,7.31
2023-04-21T04:19:33.488Z,7.27
2023-04-21T04:22:01.442Z,7.32
2023-04-21T04:24:28.308Z,7.31
2023-04-21T04:26:55.515Z,7.28
2023-04-21T04:29:22.830Z,7.37
2023-04-21T04:31:51.258Z,7.34
2023-04-21T04:34:18.174Z,7.29
2023-04-21T04:36:45.939Z,7.22
2023-04-21T04:39:12.762Z,7.20
2023-04-21T04:41:40.031Z,7.30
2023-04-21T04:44:06.913Z,7.38
2023-04-21T04:46:34.063Z,7.37
2023-04-21T04:49:01.502Z,7.34
2023-04-21T04:51:28.617Z,7.44
2023-04-21T04:53:55.415Z,7.47
2023-04-21T04:56:22.309Z,7.59
2023-04-21T04:58:49.197Z,7.66
2023-04-21T05:01:19.103Z,7.59
2023-04-21T05:03:47.066Z,7.73
2023-04-21T05:06:14.549Z,7.67
2023-04-21T05:08:45.382Z,7.67
2023-04-21T05:11:12.211Z,7.69
2023-04-21T05:13:40.195Z,7.75
2023-04-21T05:16:07.828Z,7.80
2023-04-21T05:18:34.619Z,7.94
2023-04-21T05:21:01.355Z,8.07
2023-04-21T05:23:28.446Z,8.20
2023-04-21T05:25:55.225Z,8.17
2023-04-21T05:28:22.028Z,8.37
2023-04-21T05:30:49.611Z,8.25
2023-04-21T05:33:19.868Z,8.42
2023-04-21T05:35:46.928Z,8.35
2023-04-21T05:38:13.719Z,8.23
2023-04-21T05:40:40.878Z,8.07
2023-04-21T05:43:07.631Z,8.09
2023-04-21T05:45:38.856Z,8.14
2023-04-21T05:48:06.173Z,8.09
2023-04-21T05:50:35.920Z,8.13
2023-04-21T05:53:02.809Z,8.15
2023-04-21T05:55:29.628Z,8.21
2023-04-21T05:57:56.605Z,8.19
2023-04-21T06:00:23.359Z,8.26
2023-04-21T06:02:50.317Z,8.23
2023-04-21T06:05:17.270Z,8.38
2023-04-21T06:07:44.127Z,8.46
2023-04-21T06:10:11.812Z,8.52
2023-04-21T06:12:38.765Z,8.53
2023-04-21T06:15:06.246Z,8.51
2023-04-21T06:17:33.243Z,8.60
2023-04-21T06:20:00.074Z,8.62
2023-04-21T06:22:27.759Z,8.40
2023-04-21T06:24:54.537Z,8.64
2023-04-21T06:27:21.239Z,8.82
2023-04-21T06:29:48.005Z,8.81
2023-04-21T06:32:14.815Z,8.90
2023-04-21T06:34:41.545Z,9.24
2023-04-21T06:37:08.687Z,9.40
2023-04-21T06:39:35.481Z,9.18
2023-04-21T06:42:02.614Z,9.71
2023-04-21T06:44:30.031Z,9.64
2023-04-21T06:46:56.965Z,9.58
2023-04-21T06:49:23.795Z,9.39
2023-04-21T06:51:50.517Z,9.55
2023-04-21T06:54:17.306Z,9.64
2023-04-21T06:56:44.081Z,9.80
2023-04-21T06:59:11.258Z,9.76
2023-04-21T07:01:38.076Z,9.66
2023-04-21T07:04:06.480Z,10.05
2023-04-21T07:06:33.736Z,10.34
2023-04-21T07:09:00.555Z,10.32
2023-04-21T07:11:28.859Z,10.44
2023-04-21T07:13:56.074Z,10.83
2023-04-21T07:16:22.965Z,10.67
2023-04-21T07:18:49.808Z,10.41
2023-04-21T07:21:16.578Z,10.40
2023-04-21T07:23:43.349Z,10.62
2023-04-21T07:26:10.587Z,10.90
2023-04-21T07:28:38.713Z,11.32
2023-04-21T07:31:05.479Z,11.34
2023-04-21T07:33:32.485Z,11.14
2023-04-21T07:35:59.626Z,11.22
2023-04-21T07:38:26.468Z,11.69
2023-04-21T07:40:53.426Z,11.81
2023-04-21T07:43:20.191Z,11.73
2023-04-21T07:45:47.100Z,12.08
2023-04-21T07:48:13.930Z,11.96
2023-04-21T07:50:41.648Z,12.48
2023-04-21T07:53:08.478Z,12.27
2023-04-21T07:55:37.630Z,12.38
2023-04-21T07:58:05.394Z,12.34
2023-04-21T08:00:32.353Z,12.37
2023-04-21T08:02:59.455Z,12.39
2023-04-21T08:05:28.920Z,12.40
2023-04-21T08:07:58.523Z,13.05
2023-04-21T08:10:25.720Z,13.75
2023-04-21T08:12:52.587Z,13.51
2023-04-21T08:15:19.500Z,12.72
2023-04-21T08:17:46.504Z,12.17
2023-04-21T08:20:13.825Z,12.66
2023-04-21T08:22:40.608Z,12.49
2023-04-21T08:25:07.803Z,12.81
2023-04-21T08:27:34.772Z,13.41
2023-04-21T08:30:01.628Z,13.00
2023-04-21T08:32:28.474Z,12.96
2023-04-21T08:34:55.520Z,12.90
2023-04-21T08:37:23.221Z,13.11
2023-04-21T08:39:53.918Z,13.18
2023-04-21T08:42:21.149Z,13.18
2023-04-21T08:44:47.987Z,13.12
2023-04-21T08:47:16.041Z,12.98
2023-04-21T08:49:45.544Z,13.57
2023-04-21T08:52:14.186Z,13.34
2023-04-21T08:54:41.822Z,12.92
2023-04-21T08:57:15.516Z,13.20
2023-04-21T08:59:43.270Z,13.33
2023-04-21T09:02:12.696Z,13.98
2023-04-21T09:04:44.181Z,14.16
2023-04-21T09:07:11.585Z,14.33
2023-04-21T09:09:55.164Z,13.65
2023-04-21T09:12:23.153Z,14.19
2023-04-21T09:14:50.195Z,14.05
2023-04-21T09:17:18.536Z,13.87
2023-04-21T09:19:45.450Z,14.11
2023-04-21T09:22:18.821Z,13.99
2023-04-21T09:24:47.301Z,13.66
2023-04-21T09:27:16.487Z,14.47
2023-04-21T09:29:50.597Z,13.42
2023-04-21T09:32:20.038Z,13.83
2023-04-21T09:34:47.169Z,13.98
2023-04-21T09:37:17.396Z,14.17
2023-04-21T09:40:03.542Z,14.15
2023-04-21T09:42:39.175Z,13.45
2023-04-21T09:45:32.320Z,13.97
2023-04-21T09:48:00.971Z,14.08
2023-04-21T09:53:08.410Z,14.53
2023-04-21T09:55:36.156Z,14.36
2023-04-21T09:58:03.324Z,14.50
2023-04-21T10:00:31.369Z,14.80
2023-04-21T10:03:01.158Z,14.82
2023-04-21T10:05:29.229Z,15.35
2023-04-21T10:07:56.874Z,15.98
2023-04-21T10:10:27.424Z,15.65
2023-04-21T10:12:55.199Z,15.84
2023-04-21T10:15:40.992Z,16.11
2023-04-21T10:18:14.744Z,16.48
2023-04-21T10:21:10.320Z,16.70
2023-04-21T10:23:43.986Z,16.49
2023-04-21T10:26:12.222Z,16.04
2023-04-21T10:29:02.277Z,16.59
2023-04-21T10:31:36.340Z,17.68
2023-04-21T10:34:12.204Z,17.70
2023-04-21T10:36:54.499Z,17.06
2023-04-21T10:39:47.649Z,16.46
2023-04-21T10:42:17.964Z,16.54
2023-04-21T10:44:51.145Z,17.30
2023-04-21T10:47:38.471Z,18.04
2023-04-21T10:50:20.643Z,18.05
2023-04-21T10:52:53.708Z,17.68
2023-04-21T10:55:21.410Z,18.01
2023-04-21T10:57:48.733Z,18.42
2023-04-21T11:00:21.477Z,18.59
2023-04-21T11:03:01.442Z,17.82
2023-04-21T11:05:41.540Z,19.05
2023-04-21T11:08:14.741Z,19.59
2023-04-21T11:10:55.975Z,18.57
2023-04-21T11:13:27.767Z,19.70
2023-04-21T11:16:01.509Z,19.71
2023-04-21T11:18:38.162Z,17.29
2023-04-21T11:21:11.850Z,17.33
2023-04-21T11:23:48.627Z,18.55
2023-04-21T11:26:16.134Z,19.63
2023-04-21T11:28:43.278Z,19.71
2023-04-21T11:31:11.154Z,19.59
2023-04-21T11:33:40.896Z,19.51
2023-04-21T11:36:08.389Z,18.85
2023-04-21T11:38:40.326Z,19.66
2023-04-21T11:41:07.789Z,18.55
2023-04-21T11:43:34.624Z,21.53
2023-04-21T11:46:18.301Z,19.99
2023-04-21T11:48:45.926Z,20.34
2023-04-21T11:51:20.704Z,21.02
2023-04-21T11:53:49.192Z,20.34
2023-04-21T11:56:21.993Z,21.88
2023-04-21T11:58:55.150Z,21.28
2023-04-21T12:01:22.877Z,21.61
2023-04-21T12:03:56.599Z,20.84
2023-04-21T12:06:28.920Z,21.51
2023-04-21T12:08:57.933Z,21.54
2023-04-21T12:11:25.546Z,20.72
2023-04-21T12:13:52.385Z,21.83
2023-04-21T12:16:19.393Z,22.92
2023-04-21T12:18:48.655Z,23.01
2023-04-21T12:21:16.712Z,23.03
2023-04-21T12:23:44.939Z,22.69
2023-04-21T12:26:12.386Z,22.87
2023-04-21T12:28:40.071Z,22.94
2023-04-21T12:31:07.212Z,22.06
2023-04-21T12:33:34.343Z,21.17
2023-04-21T12:36:01.681Z,21.22
2023-04-21T12:38:28.743Z,20.69
2023-04-21T12:40:56.306Z,21.41
2023-04-21T12:43:23.108Z,22.67
2023-04-21T12:45:50.606Z,22.06
2023-04-21T12:48:17.501Z,22.30
2023-04-21T12:50:44.298Z,22.94
2023-04-21T12:53:11.016Z,22.69
2023-04-21T12:55:40.176Z,20.93
2023-04-21T12:58:10.164Z,21.82
2023-04-21T13:00:37.870Z,22.61
2023-04-21T13:03:05.054Z,22.62
2023-04-21T13:05:32.062Z,23.59
2023-04-21T13:07:59.055Z,23.13
2023-04-21T13:10:26.068Z,23.17
2023-04-21T13:12:52.797Z,23.56
2023-04-21T13:15:19.569Z,23.18
2023-04-21T13:17:46.438Z,23.36
2023-04-21T13:20:13.356Z,23.34
2023-04-21T13:22:43.070Z,23.90
2023-04-21T13:25:13.874Z,22.85
2023-04-21T13:27:48.764Z,24.66
2023-04-21T13:30:16.327Z,23.93
2023-04-21T13:32:43.910Z,23.83
2023-04-21T13:35:11.515Z,24.51
2023-04-21T13:37:38.907Z,23.87
2023-04-21T13:40:08.385Z,24.31
2023-04-21T13:42:36.287Z,24.51
2023-04-21T13:45:03.639Z,24.78
2023-04-21T13:47:32.527Z,23.80
2023-04-21T13:50:00.154Z,22.98
2023-04-21T13:52:27.680Z,24.71
2023-04-21T13:54:54.742Z,24.71
2023-04-21T13:57:21.616Z,24.64
2023-04-21T13:59:50.092Z,23.91
2023-04-21T14:02:18.340Z,25.35
2023-04-21T14:04:45.645Z,24.83
2023-04-21T14:07:15.660Z,25.22
2023-04-21T14:09:42.460Z,24.43
2023-04-21T14:12:10.536Z,25.73
2023-04-21T14:14:39.351Z,23.76
2023-04-21T14:17:07.240Z,23.29
2023-04-21T14:19:35.254Z,24.23
2023-04-21T14:22:02.569Z,24.20
2023-04-21T14:24:30.511Z,24.50
2023-04-21T14:26:57.985Z,23.38
2023-04-21T14:29:25.088Z,23.70
2023-04-21T14:31:54.198Z,24.11
2023-04-21T14:34:22.571Z,23.74
2023-04-21T14:36:51.650Z,24.52
2023-04-21T14:39:21.808Z,22.91
2023-04-21T14:41:49.401Z,23.72
2023-04-21T14:44:19.403Z,24.20
2023-04-21T14:46:53.732Z,23.42
2023-04-21T14:49:28.613Z,24.80
2023-04-21T14:51:58.165Z,23.46
2023-04-21T14:54:25.540Z,24.75
2023-04-21T14:57:00.480Z,22.81
2023-04-21T14:59:35.372Z,23.85
2023-04-21T15:02:03.542Z,23.33
2023-04-21T15:04:32.188Z,22.70
2023-04-21T15:07:01.871Z,23.77
2023-04-21T15:09:28.857Z,24.22
2023-04-21T15:11:55.880Z,25.48
2023-04-21T15:14:22.711Z,25.40
2023-04-21T15:16:49.469Z,25.32
2023-04-21T15:19:16.476Z,24.34
2023-04-21T15:21:43.257Z,24.39
2023-04-21T15:24:10.778Z,25.35
2023-04-21T15:26:37.934Z,24.87
2023-04-21T15:29:04.974Z,24.89
2023-04-21T15:31:31.988Z,26.54
2023-04-21T15:33:58.972Z,25.81
2023-04-21T15:36:26.211Z,26.35
2023-04-21T15:38:52.976Z,24.92
2023-04-21T15:41:19.813Z,25.74
2023-04-21T15:43:46.601Z,25.56
2023-04-21T15:46:13.546Z,26.24
2023-04-21T15:48:44.823Z,25.23
2023-04-21T15:51:13.241Z,26.17
2023-04-21T15:53:47.525Z,26.64
2023-04-21T15:56:18.002Z,26.35
2023-04-21T15:58:45.162Z,26.25
2023-04-21T16:01:12.592Z,25.71
2023-04-21T16:03:40.695Z,25.32
2023-04-21T16:06:08.153Z,26.25
2023-04-21T16:08:35.102Z,25.50
2023-04-21T16:11:02.136Z,25.96
2023-04-21T16:13:30.540Z,25.66
2023-04-21T16:15:57.688Z,26.03
2023-04-21T16:18:24.789Z,26.03
2023-04-21T16:20:52.056Z,26.01
2023-04-21T16:23:19.445Z,24.45
2023-04-21T16:25:46.241Z,23.77
2023-04-21T16:28:13.120Z,22.66
2023-04-21T16:30:43.963Z,23.07
2023-04-21T16:33:14.675Z,24.60
2023-04-21T16:35:42.164Z,23.93
2023-04-21T16:38:09.248Z,24.13
2023-04-21T16:40:36.075Z,22.54
2023-04-21T16:43:02.957Z,24.48
2023-04-21T16:45:30.085Z,24.08
2023-04-21T16:47:57.746Z,23.05
2023-04-21T16:50:25.086Z,24.23
2023-04-21T16:52:52.025Z,25.02
2023-04-21T16:55:20.083Z,24.22
2023-04-21T16:57:46.989Z,24.45
2023-04-21T17:00:14.376Z,24.25
2023-04-21T17:02:41.615Z,25.24
2023-04-21T17:05:09.292Z,24.57
2023-04-21T17:07:37.062Z,24.96
2023-04-21T17:10:03.962Z,23.67
2023-04-21T17:12:30.718Z,23.26
2023-04-21T17:14:57.446Z,24.57
2023-04-21T17:17:24.820Z,24.20
2023-04-21T17:19:53.523Z,23.41
2023-04-21T17:22:20.383Z,23.30
2023-04-21T17:24:53.108Z,23.61
2023-04-21T17:27:20.459Z,23.33
2023-04-21T17:29:47.277Z,23.67
2023-04-21T17:32:14.637Z,23.46
2023-04-21T17:34:41.538Z,22.78
2023-04-21T17:37:08.649Z,22.50
2023-04-21T17:39:35.688Z,20.71
2023-04-21T17:42:03.597Z,20.24
2023-04-21T17:44:30.561Z,20.17
2023-04-21T17:46:58.427Z,19.91
2023-04-21T17:49:25.680Z,19.53
2023-04-21T17:51:52.672Z,19.46
2023-04-21T17:54:19.514Z,19.27
2023-04-21T17:56:46.507Z,19.24
2023-04-21T17:59:14.081Z,19.00
2023-04-21T18:01:41.069Z,18.91
2023-04-21T18:04:08.353Z,18.72
2023-04-21T18:06:36.994Z,18.58
2023-04-21T18:09:05.334Z,18.41
2023-04-21T18:11:32.295Z,18.31
2023-04-21T18:13:59.244Z,18.08
2023-04-21T18:16:26.702Z,18.00
2023-04-21T18:18:54.028Z,17.83
2023-04-21T18:21:21.796Z,17.74
2023-04-21T18:23:49.453Z,17.69
2023-04-21T18:26:16.550Z,17.60
2023-04-21T18:28:43.372Z,17.39
2023-04-21T18:31:10.427Z,17.29
2023-04-21T18:33:37.336Z,17.22
2023-04-21T18:36:04.431Z,17.07
2023-04-21T18:38:31.287Z,17.04
2023-04-21T18:40:58.789Z,16.77
2023-04-21T18:43:25.720Z,16.54
2023-04-21T18:45:53.127Z,16.46
2023-04-21T18:48:20.006Z,16.46
2023-04-21T18:50:47.132Z,16.46
2023-04-21T18:53:14.181Z,16.41
2023-04-21T18:55:41.095Z,16.39
2023-04-21T18:58:08.145Z,16.30
2023-04-21T19:00:38.002Z,16.51
2023-04-21T19:03:09.189Z,16.10
2023-04-21T19:05:37.337Z,15.71
2023-04-21T19:08:04.444Z,15.61
2023-04-21T19:10:34.548Z,15.45
2023-04-21T19:13:01.737Z,15.31
2023-04-21T19:15:29.059Z,15.38
2023-04-21T19:17:56.295Z,15.34
2023-04-21T19:20:24.785Z,15.20
2023-04-21T19:22:54.693Z,15.06
2023-04-21T19:25:21.848Z,14.92
2023-04-21T19:27:48.715Z,14.92
2023-04-21T19:30:16.723Z,15.06
2023-04-21T19:32:47.769Z,14.96
2023-04-21T19:35:15.044Z,14.84
2023-04-21T19:37:42.294Z,14.83
2023-04-21T19:40:09.768Z,14.74
2023-04-21T19:42:41.659Z,14.43
2023-04-21T19:45:09.758Z,14.50
2023-04-21T19:47:41.215Z,14.41
2023-04-21T19:50:09.265Z,14.25
2023-04-21T19:52:36.966Z,14.14
2023-04-21T19:55:04.999Z,13.99
2023-04-21T19:57:31.994Z,13.88
2023-04-21T19:59:58.842Z,13.85
2023-04-21T20:02:26.631Z,13.71
2023-04-21T20:04:54.238Z,13.65
2023-04-21T20:07:21.288Z,13.51
2023-04-21T20:09:48.328Z,13.45
2023-04-21T20:12:15.216Z,13.39
2023-04-21T20:14:41.995Z,13.39
2023-04-21T20:17:09.141Z,13.26
2023-04-21T20:19:38.647Z,13.15
2023-04-21T20:22:06.976Z,13.14
2023-04-21T20:24:34.623Z,13.12
2023-04-21T20:27:02.265Z,13.16
2023-04-21T20:29:29.543Z,13.05
2023-04-21T20:31:57.905Z,13.08
2023-04-21T20:34:24.869Z,13.05
2023-04-21T20:36:55.176Z,12.98
2023-04-21T20:39:22.832Z,13.12
2023-04-21T20:42:01.030Z,12.77
2023-04-21T20:44:37.508Z,12.47
2023-04-21T20:47:04.650Z,12.52
2023-04-21T20:49:31.976Z,12.61
2023-04-21T20:52:00.256Z,12.59
2023-04-21T20:54:27.504Z,12.73
2023-04-21T20:56:54.661Z,12.75
2023-04-21T20:59:21.569Z,12.77
2023-04-21T21:01:48.721Z,12.70
2023-04-21T21:04:15.863Z,12.68
2023-04-21T21:06:43.213Z,12.83
2023-04-21T21:09:13.322Z,12.76
2023-04-21T21:11:40.167Z,12.69
2023-04-21T21:14:07.020Z,12.58
2023-04-21T21:16:33.939Z,12.62
2023-04-21T21:19:00.756Z,12.54
2023-04-21T21:21:27.643Z,12.62
2023-04-21T21:23:54.426Z,12.61
2023-04-21T21:26:21.354Z,12.47
2023-04-21T21:28:48.185Z,12.49
2023-04-21T21:31:16.826Z,12.30
2023-04-21T21:33:43.786Z,12.46
2023-04-21T21:36:10.831Z,12.32
2023-04-21T21:38:37.996Z,12.16
2023-04-21T21:41:05.370Z,12.15
2023-04-21T21:43:33.537Z,11.99
2023-04-21T21:46:00.452Z,12.17
2023-04-21T21:48:27.345Z,12.08
2023-04-21T21:50:54.215Z,11.95
2023-04-21T21:53:21.134Z,11.86
2023-04-21T21:55:47.971Z,11.92
2023-04-21T21:58:15.365Z,11.78
2023-04-21T22:00:42.789Z,11.81
2023-04-21T22:03:09.708Z,11.71
2023-04-21T22:05:36.692Z,11.69
2023-04-21T22:08:04.359Z,11.61
2023-04-21T22:10:31.391Z,11.44
2023-04-21T22:12:58.404Z,11.54
2023-04-21T22:15:25.196Z,11.57
2023-04-21T22:17:52.436Z,11.43
2023-04-21T22:20:19.555Z,11.50
2023-04-21T22:22:51.036Z,11.39
2023-04-21T22:25:18.029Z,11.48
2023-04-21T22:27:45.229Z,11.39
2023-04-21T22:30:15.818Z,11.43
2023-04-21T22:32:43.662Z,11.39
2023-04-21T22:35:10.562Z,11.48
2023-04-21T22:37:37.446Z,11.30
2023-04-21T22:40:04.976Z,11.16
2023-04-21T22:42:32.200Z,11.15
2023-04-21T22:45:01.705Z,11.13
2023-04-21T22:47:28.565Z,10.97
2023-04-21T22:49:56.169Z,11.00
2023-04-21T22:52:23.052Z,11.19
2023-04-21T22:54:49.856Z,11.18
2023-04-21T22:57:16.702Z,11.12
2023-04-21T22:59:43.541Z,11.15
2023-04-21T23:02:10.563Z,11.06
2023-04-21T23:04:37.522Z,11.04
2023-04-21T23:07:05.389Z,11.01
2023-04-21T23:09:32.264Z,10.91
2023-04-21T23:11:59.272Z,10.88
2023-04-21T23:14:26.485Z,10.94
2023-04-21T23:16:53.404Z,10.83
2023-04-21T23:19:21.200Z,10.91
2023-04-21T23:21:48.104Z,10.94
2023-04-21T23:24:15.817Z,10.93
2023-04-21T23:26:45.995Z,10.83
2023-04-21T23:29:13.130Z,10.81
2023-04-21T23:31:40.417Z,10.74
2023-04-21T23:34:07.482Z,10.70
2023-04-21T23:36:34.297Z,10.70
2023-04-21T23:39:01.347Z,10.75
2023-04-21T23:41:28.280Z,10.69
2023-04-21T23:43:55.086Z,10.65
2023-04-21T23:46:21.999Z,10.60
2023-04-21T23:48:48.803Z,10.56
2023-04-21T23:51:15.966Z,10.57
2023-04-21T23:53:42.804Z,10.35
2023-04-21T23:56:09.550Z,10.37
2023-04-21T23:58:36.383Z,10.34
